Time;durP1;ratioP1;P1;durP2;ratioP2;P2;SDS_P1;SDS_P2;PMS_P1;PMS_P2;Temp;Humidity;BMP_temperature;BMP_pressure;BME280_temperature;BME280_humidity;BME280_pressure;Samples;Min_cycle;Max_cycle;Signal;HPM_P1;HPM_P2
2023/01/13 00:00:33;;;;;;;18.45;13.83;;;;;;;-1.15;63.92;101720.67;1693029;83;21217;-51
2023/01/13 00:03:38;;;;;;;22.05;14.15;;;;;;;-1.08;63.97;101726.19;1698875;84;21348;-53
2023/01/13 00:06:46;;;;;;;20.62;13.62;;;;;;;-1.09;63.86;101731.13;1698981;84;21399;-51
2023/01/13 00:09:52;;;;;;;26.33;14.20;;;;;;;-1.11;63.85;101730.36;1698947;84;21557;-51
2023/01/13 00:12:58;;;;;;;20.02;12.75;;;;;;;-1.10;63.79;101722.69;1698916;84;21225;-52
2023/01/13 00:16:09;;;;;;;17.60;11.68;;;;;;;-1.10;63.69;101724.03;1683017;84;21185;-51
2023/01/13 00:19:15;;;;;;;20.27;12.10;;;;;;;-1.13;63.75;101725.05;1699016;84;21237;-52
2023/01/13 00:22:21;;;;;;;20.37;13.50;;;;;;;-1.19;63.61;101727.14;1698927;84;21201;-51
2023/01/13 00:25:27;;;;;;;23.85;13.28;;;;;;;-1.24;63.64;101717.06;1698958;84;21384;-51
2023/01/13 00:28:33;;;;;;;18.87;13.35;;;;;;;-1.25;63.73;101724.73;1684201;84;21221;-50
2023/01/13 00:31:39;;;;;;;20.77;12.13;;;;;;;-1.29;63.81;101716.39;1698862;84;21189;-52
2023/01/13 00:34:46;;;;;;;26.12;13.48;;;;;;;-1.32;63.85;101729.97;1698942;84;21217;-51
2023/01/13 00:37:52;;;;;;;20.02;13.30;;;;;;;-1.35;63.89;101720.70;1698858;84;21229;-52
2023/01/13 00:41:12;;;;;;;18.67;13.68;;;;;;;-1.37;63.92;101717.20;1698890;84;21277;-52
2023/01/13 00:44:18;;;;;;;27.55;14.80;;;;;;;-1.37;63.97;101703.78;1698883;84;21290;-50
2023/01/13 00:47:23;;;;;;;19.85;13.85;;;;;;;-1.33;64.01;101701.37;1698879;84;21210;-51
2023/01/13 00:50:29;;;;;;;23.60;15.18;;;;;;;-1.28;64.07;101696.18;1682874;84;21221;-51
2023/01/13 00:53:34;;;;;;;27.85;14.65;;;;;;;-1.37;63.84;101702.44;1698945;84;21205;-51
2023/01/13 00:56:41;;;;;;;23.75;15.23;;;;;;;-1.42;63.91;101700.42;1698906;84;21244;-51
2023/01/13 00:59:47;;;;;;;24.27;14.68;;;;;;;-1.36;64.15;101709.58;1698914;84;21371;-51
2023/01/13 01:02:53;;;;;;;24.20;16.05;;;;;;;-1.36;64.10;101710.42;1691814;84;21800;-52
2023/01/13 01:06:00;;;;;;;22.05;13.90;;;;;;;-1.39;64.06;101706.99;1691139;85;21197;-52
2023/01/13 01:09:06;;;;;;;21.40;15.13;;;;;;;-1.47;64.14;101703.81;1691115;85;21217;-52
2023/01/13 01:12:12;;;;;;;20.15;14.50;;;;;;;-1.43;64.21;101705.41;1691063;85;21214;-53
2023/01/13 01:15:18;;;;;;;27.62;14.85;;;;;;;-1.40;64.24;101701.23;1740304;82;21244;-51
2023/01/13 01:18:25;;;;;;;25.68;14.10;;;;;;;-1.33;64.41;101698.20;1740762;82;21353;-52
2023/01/13 01:21:32;;;;;;;22.22;14.47;;;;;;;-1.31;64.34;101692.75;1731675;82;21153;-52
2023/01/13 01:24:38;;;;;;;25.95;15.48;;;;;;;-1.35;64.29;101681.77;1739645;82;21244;-51
2023/01/13 01:27:44;;;;;;;25.02;16.05;;;;;;;-1.42;64.20;101673.11;1740683;82;21335;-51
2023/01/13 01:30:50;;;;;;;30.88;18.00;;;;;;;-1.44;64.18;101676.33;1740352;82;21343;-52
2023/01/13 01:33:56;;;;;;;31.80;17.95;;;;;;;-1.43;64.21;101676.75;1740549;82;21188;-50
2023/01/13 01:37:02;;;;;;;34.33;19.00;;;;;;;-1.41;64.28;101680.70;1733434;82;21197;-51
2023/01/13 01:40:09;;;;;;;31.70;18.40;;;;;;;-1.33;64.48;101678.55;1741024;82;21222;-51
2023/01/13 01:46:50;;;;;;;32.48;19.60;;;;;;;-1.11;64.80;101676.63;1740937;82;21177;-52
2023/01/13 01:49:50;;;;;;;38.15;20.12;;;;;;;-1.00;64.82;101667.59;1741072;82;21205;-52
2023/01/13 01:53:02;;;;;;;38.53;20.52;;;;;;;-0.97;64.69;101668.79;1740715;82;21181;-52
2023/01/13 01:56:08;;;;;;;40.25;21.23;;;;;;;-0.99;64.56;101667.52;1741152;81;21197;-51
2023/01/13 01:59:14;;;;;;;35.33;21.97;;;;;;;-0.95;64.54;101661.53;1740769;82;21331;-52
2023/01/13 02:02:19;;;;;;;40.50;23.22;;;;;;;-1.00;64.40;101656.35;1738423;81;21237;-52
2023/01/13 02:05:26;;;;;;;39.45;21.23;;;;;;;-1.05;64.37;101657.52;1740636;82;21181;-52
2023/01/13 02:08:31;;;;;;;37.75;23.47;;;;;;;-1.10;64.36;101648.80;1740619;82;21292;-52
2023/01/13 02:15:19;;;;;;;40.03;24.47;;;;;;;-1.08;64.49;101657.67;1740464;82;21209;-51
2023/01/13 02:18:45;;;;;;;37.30;23.35;;;;;;;-1.05;64.70;101658.41;1740529;82;21201;-52
2023/01/13 02:22:19;;;;;;;41.75;24.35;;;;;;;-0.97;64.89;101653.55;1740711;82;21326;-51
2023/01/13 02:25:48;;;;;;;;;;;;;;;-0.88;64.97;101649.53;1743099;82;21216;-51
2023/01/13 02:33:33;;;;;;;37.33;24.00;;;;;;;-0.99;64.62;101651.40;1740505;82;21185;-51
2023/01/13 02:36:59;;;;;;;42.33;23.00;;;;;;;-1.09;64.61;101651.88;1741055;82;21248;-51
2023/01/13 02:40:10;;;;;;;39.53;22.25;;;;;;;-1.11;64.77;101664.04;1733555;82;21197;-51
2023/01/13 02:47:14;;;;;;;45.15;24.12;;;;;;;-1.04;64.98;101654.77;1740763;82;21185;-51
2023/01/13 02:50:29;;;;;;;40.10;23.47;;;;;;;-0.98;65.02;101654.97;1740530;82;21280;-51
2023/01/13 02:53:39;;;;;;;36.03;23.22;;;;;;;-0.91;65.08;101655.06;1740712;82;21189;-51
2023/01/13 02:56:49;;;;;;;37.55;23.30;;;;;;;-0.85;65.01;101656.11;1740742;82;21193;-52
2023/01/13 02:59:55;;;;;;;39.50;22.50;;;;;;;-0.83;64.94;101658.26;1740806;82;21228;-51
2023/01/13 03:03:02;;;;;;;44.25;23.05;;;;;;;-0.85;64.76;101650.73;1740600;82;21205;-52
2023/01/13 03:06:30;;;;;;;45.70;22.30;;;;;;;-0.92;64.61;101652.83;1707601;83;21366;-49
2023/01/13 03:09:53;;;;;;;42.05;23.05;;;;;;;-0.89;64.77;101651.84;1706454;83;21244;-50
2023/01/13 03:13:21;;;;;;;40.17;22.93;;;;;;;-0.82;64.89;101647.89;1706690;84;21235;-51
2023/01/13 03:16:49;;;;;;;40.55;20.97;;;;;;;-0.81;64.86;101649.66;1706482;84;21679;-50
2023/01/13 03:20:11;;;;;;;44.38;22.30;;;;;;;-0.74;65.01;101647.94;1706480;83;21314;-51
2023/01/13 03:23:25;;;;;;;37.33;21.40;;;;;;;-0.77;64.83;101646.75;1706470;83;21196;-50
2023/01/13 03:26:55;;;;;;;37.90;21.65;;;;;;;-0.84;64.83;101641.74;1706478;84;21196;-51
2023/01/13 03:30:07;;;;;;;34.33;20.12;;;;;;;-0.83;64.92;101643.48;1706379;82;21348;-51
2023/01/13 03:33:30;;;;;;;40.10;21.10;;;;;;;-0.84;64.83;101641.74;1706526;84;21219;-51
2023/01/13 03:36:36;;;;;;;32.30;20.10;;;;;;;-0.88;64.94;101639.66;1706639;84;21210;-51
2023/01/13 03:39:46;;;;;;;34.18;19.50;;;;;;;-0.96;64.77;101638.27;1706511;84;21223;-50
2023/01/13 03:46:21;;;;;;;34.18;19.67;;;;;;;-1.08;64.81;101638.86;1706454;83;21196;-51
2023/01/13 03:49:29;;;;;;;31.00;18.73;;;;;;;-1.13;64.86;101635.52;1706453;84;21243;-50
2023/01/13 03:52:39;;;;;;;35.23;19.05;;;;;;;-1.16;64.95;101642.38;1706477;84;21330;-51
2023/01/13 03:55:51;;;;;;;33.80;21.97;;;;;;;-1.18;65.07;101642.91;1706606;83;21197;-51
2023/01/13 03:58:56;;;;;;;31.50;19.37;;;;;;;-1.12;65.25;101631.88;1706824;83;21208;-51
2023/01/13 04:02:10;;;;;;;34.20;19.42;;;;;;;-1.05;65.27;101634.69;1706535;84;21260;-50
2023/01/13 04:05:16;;;;;;;30.82;17.23;;;;;;;-1.00;65.32;101642.91;1707159;81;21170;-52
2023/01/13 04:08:32;;;;;;;38.15;18.17;;;;;;;-0.92;65.33;101638.05;1770554;81;21543;-51
2023/01/13 04:11:50;;;;;;;28.38;16.00;;;;;;;-0.84;65.38;101638.56;1770254;81;21316;-52
2023/01/13 04:14:55;;;;;;;27.93;16.42;;;;;;;-0.72;65.56;101637.11;1769264;81;21213;-52
2023/01/13 04:18:24;;;;;;;23.32;14.28;;;;;;;-0.67;65.50;101637.77;1771350;80;21198;-51
2023/01/13 04:21:30;;;;;;;28.17;14.68;;;;;;;-0.63;65.47;101643.37;1771084;81;21256;-51
2023/01/13 04:24:36;;;;;;;23.07;14.00;;;;;;;-0.67;65.38;101644.02;1771454;80;21233;-51
2023/01/13 04:27:41;;;;;;;23.25;15.00;;;;;;;-0.70;65.21;101647.33;1770944;80;21206;-50
2023/01/13 04:30:46;;;;;;;20.85;11.85;;;;;;;-0.75;65.18;101644.86;1770744;80;21189;-53
2023/01/13 04:33:51;;;;;;;21.42;12.40;;;;;;;-0.81;65.08;101641.59;1771294;80;21214;-53
2023/01/13 04:36:51;;;;;;;19.75;12.18;;;;;;;-0.88;65.15;101645.05;1770649;81;21260;-53
2023/01/13 04:39:57;;;;;;;29.30;11.15;;;;;;;-0.81;65.38;101641.59;1770786;80;21746;-53
2023/01/13 04:43:03;;;;;;;18.32;10.75;;;;;;;-0.76;65.44;101644.94;1765155;80;21184;-54
2023/01/13 04:46:09;;;;;;;19.87;9.50;;;;;;;-0.69;65.51;101645.91;1768002;80;21725;-53
2023/01/13 04:49:14;;;;;;;19.30;10.05;;;;;;;-0.64;65.47;101637.15;1768152;80;21212;-54
2023/01/13 04:52:19;;;;;;;22.87;10.63;;;;;;;-0.66;65.40;101635.00;1768004;80;21184;-54
2023/01/13 04:55:24;;;;;;;22.13;11.35;;;;;;;-0.63;65.50;101642.03;1768284;80;21200;-53
2023/01/13 04:58:30;;;;;;;23.40;11.05;;;;;;;-0.56;65.57;101637.65;1767891;80;21309;-53
2023/01/13 05:01:38;;;;;;;20.23;9.93;;;;;;;-0.53;65.48;101636.15;1768570;80;21192;-54
2023/01/13 05:04:43;;;;;;;20.68;9.63;;;;;;;-0.46;65.59;101644.30;1768039;80;21173;-54
2023/01/13 05:07:52;;;;;;;17.60;10.18;;;;;;;-0.39;65.62;101648.44;1767652;80;21583;-54
2023/01/13 05:10:58;;;;;;;23.87;10.70;;;;;;;-0.39;65.45;101646.21;1748428;81;21176;-53
2023/01/13 05:17:31;;;;;;;19.82;9.48;;;;;;;-0.37;65.37;101641.17;1736983;81;21176;-54
2023/01/13 05:20:36;;;;;;;26.77;11.33;;;;;;;-0.33;65.54;101639.17;1736879;81;21263;-54
2023/01/13 05:27:02;;;;;;;18.55;10.93;;;;;;;-0.27;65.49;101646.97;1737496;81;21193;-52
2023/01/13 05:30:07;;;;;;;19.62;10.20;;;;;;;-0.25;65.50;101634.28;1737389;82;21318;-53
2023/01/13 05:33:14;;;;;;;20.80;10.03;;;;;;;-0.24;65.45;101635.55;1737729;82;21342;-53
2023/01/13 05:36:19;;;;;;;25.12;11.30;;;;;;;-0.19;65.57;101634.00;1737291;82;21235;-53
2023/01/13 05:39:23;;;;;;;37.53;12.88;;;;;;;-0.25;65.43;101639.20;1737318;82;21255;-52
2023/01/13 05:45:53;;;;;;;22.67;10.72;;;;;;;-0.23;65.55;101647.20;1744931;81;21177;-53
2023/01/13 05:49:00;;;;;;;24.57;12.65;;;;;;;-0.30;65.49;101645.75;1729128;81;21259;-53
2023/01/13 05:52:06;;;;;;;24.32;12.88;;;;;;;-0.30;65.61;101645.75;1766794;81;21204;-53
2023/01/13 05:55:14;;;;;;;23.32;11.93;;;;;;;-0.34;65.45;101642.83;1766307;81;21211;-54
2023/01/13 05:58:21;;;;;;;27.62;12.50;;;;;;;-0.41;65.49;101631.95;1759695;81;21761;-55
2023/01/13 06:01:28;;;;;;;28.40;13.75;;;;;;;-0.43;65.49;101633.87;1736252;81;21255;-54
2023/01/13 06:04:38;;;;;;;31.48;14.98;;;;;;;-0.38;65.71;101648.83;1746249;81;21236;-53
2023/01/13 06:07:47;;;;;;;30.35;14.60;;;;;;;-0.30;65.77;101651.13;1766060;80;21221;-55
2023/01/13 06:10:53;;;;;;;30.80;14.50;;;;;;;-0.23;65.84;101657.95;1755881;81;21745;-56
2023/01/13 06:14:00;;;;;;;35.80;13.30;;;;;;;-0.19;65.73;101666.30;1764524;80;21200;-53
2023/01/13 06:17:06;;;;;;;31.48;14.25;;;;;;;-0.18;65.89;101669.36;1766498;80;21180;-54
2023/01/13 06:20:14;;;;;;;28.38;12.60;;;;;;;-0.17;65.84;101659.88;1764303;80;21264;-54
2023/01/13 06:23:20;;;;;;;30.30;14.40;;;;;;;-0.14;65.79;101665.56;1764008;81;21289;-55
2023/01/13 06:26:28;;;;;;;28.40;12.60;;;;;;;-0.11;65.77;101666.28;1744173;81;21237;-56
2023/01/13 06:29:33;;;;;;;30.35;15.05;;;;;;;-0.08;65.79;101672.00;1728585;81;21597;-55
2023/01/13 06:32:45;;;;;;;29.32;13.08;;;;;;;-0.05;65.71;101673.19;1691825;83;21241;-55
2023/01/13 06:35:55;;;;;;;24.70;10.18;;;;;;;-0.06;65.66;101671.43;1691830;85;21821;-57
2023/01/13 06:39:05;;;;;;;26.48;11.73;;;;;;;-0.07;65.59;101675.08;1703250;83;21210;-56
2023/01/13 06:45:37;;;;;;;25.50;12.85;;;;;;;-0.16;65.71;101683.63;1694020;83;21834;-55
2023/01/13 06:48:44;;;;;;;30.35;13.80;;;;;;;-0.13;65.83;101678.09;1693592;83;21205;-54
2023/01/13 06:51:49;;;;;;;28.95;13.35;;;;;;;-0.16;65.75;101689.86;1689115;85;21223;-55
2023/01/13 06:54:54;;;;;;;27.58;12.40;;;;;;;-0.16;65.83;101677.75;1689583;84;21255;-55
2023/01/13 06:58:02;;;;;;;36.20;16.35;;;;;;;-0.16;65.85;101675.55;1689920;83;21578;-55
2023/01/13 07:01:08;;;;;;;35.25;15.10;;;;;;;-0.15;65.82;101672.78;1689497;85;21786;-55
2023/01/13 07:04:14;;;;;;;35.60;15.23;;;;;;;-0.15;65.70;101667.86;1765881;80;21269;-54
2023/01/13 07:07:22;;;;;;;37.83;15.78;;;;;;;-0.21;65.71;101670.87;1768022;80;21726;-59
2023/01/13 07:10:30;;;;;;;26.02;14.38;;;;;;;-0.21;65.74;101684.32;1769374;80;21186;-60
2023/01/13 07:17:07;;;;;;;26.02;13.08;;;;;;;-0.24;65.82;101684.48;1739234;82;21702;-60
2023/01/13 07:20:16;;;;;;;34.18;13.55;;;;;;;-0.27;65.80;101676.56;1765858;79;21209;-61
2023/01/13 07:23:23;;;;;;;34.40;14.03;;;;;;;-0.26;65.91;101670.22;1755446;80;21201;-61
2023/01/13 07:26:30;;;;;;;32.15;14.13;;;;;;;-0.33;65.88;101672.34;1769373;81;21193;-60
2023/01/13 07:29:36;;;;;;;26.20;14.25;;;;;;;-0.31;65.93;101677.64;1764620;80;21212;-62
2023/01/13 07:32:42;;;;;;;28.07;13.70;;;;;;;-0.33;65.90;101676.84;1758182;79;21773;-61
2023/01/13 07:35:47;;;;;;;45.40;15.23;;;;;;;-0.35;65.89;101678.75;1759605;80;21249;-59
2023/01/13 07:38:52;;;;;;;30.17;14.90;;;;;;;-0.32;66.04;101690.70;1712806;82;21809;-60
2023/01/13 07:45:21;;;;;;;30.97;14.75;;;;;;;-0.25;66.04;101689.44;1706954;83;21231;-60
2023/01/13 07:48:28;;;;;;;34.70;15.63;;;;;;;-0.24;66.05;101697.43;1698401;83;21276;-61
2023/01/13 07:51:39;;;;;;;28.73;16.55;;;;;;;-0.17;66.16;101704.73;1708599;83;21820;-60
2023/01/13 07:54:48;;;;;;;34.67;16.45;;;;;;;-0.13;66.11;101710.38;1686143;83;21225;-59
2023/01/13 07:57:56;;;;;;;36.08;17.57;;;;;;;-0.15;66.11;101717.18;1694509;83;21831;-60
2023/01/13 08:01:04;;;;;;;37.70;17.48;;;;;;;-0.15;66.13;101717.64;1684060;84;21220;-61
2023/01/13 08:04:10;;;;;;;34.13;15.43;;;;;;;-0.16;66.17;101713.22;1696712;83;21277;-60
2023/01/13 08:07:18;;;;;;;32.35;16.70;;;;;;;-0.17;66.15;101709.65;1680503;84;21244;-60
2023/01/13 08:10:24;;;;;;;38.83;17.32;;;;;;;-0.17;66.26;101702.04;1710993;83;21814;-60
2023/01/13 08:13:36;;;;;;;36.88;18.00;;;;;;;-0.10;66.42;101694.95;1770615;80;21765;-60
2023/01/13 08:16:44;;;;;;;32.67;17.82;;;;;;;-0.08;66.36;101698.91;1772909;80;21189;-60
2023/01/13 08:19:49;;;;;;;29.77;16.10;;;;;;;-0.07;66.35;101696.14;1762626;80;21221;-60
2023/01/13 08:22:55;;;;;;;29.35;14.85;;;;;;;-0.02;66.37;101695.41;1767147;79;21204;-61
2023/01/13 08:26:01;;;;;;;30.77;16.37;;;;;;;0.00;66.33;101692.18;1760294;81;21218;-60
2023/01/13 08:29:08;;;;;;;29.20;17.30;;;;;;;0.01;66.29;101690.38;1761994;80;21200;-61
2023/01/13 08:32:14;;;;;;;37.85;19.15;;;;;;;0.08;66.43;101690.94;1768593;80;21339;-60
2023/01/13 08:35:21;;;;;;;37.70;18.92;;;;;;;0.11;66.36;101684.93;1743401;80;21220;-60
2023/01/13 08:38:28;;;;;;;37.83;19.17;;;;;;;0.17;66.50;101686.42;1685955;83;21257;-60
2023/01/13 08:44:56;;;;;;;37.93;19.65;;;;;;;0.32;66.43;101685.65;1762387;80;21213;-60
2023/01/13 08:48:03;;;;;;;32.98;19.82;;;;;;;0.21;66.12;101680.80;1749860;80;21177;-60
2023/01/13 08:51:11;;;;;;;49.13;21.20;;;;;;;0.16;66.18;101682.84;1761357;80;21220;-59
2023/01/13 08:54:18;;;;;;;35.88;16.75;;;;;;;0.17;66.24;101681.92;1757582;79;21173;-60
2023/01/13 08:57:23;;;;;;;47.08;16.55;;;;;;;0.15;66.22;101681.12;1758811;81;21189;-60
2023/01/13 09:00:28;;;;;;;33.48;15.23;;;;;;;0.19;66.42;101677.30;1745981;80;21855;-61
2023/01/13 09:03:34;;;;;;;50.78;15.48;;;;;;;0.23;66.50;101677.55;1764718;80;21305;-60
2023/01/13 09:06:39;;;;;;;30.55;13.00;;;;;;;0.27;66.55;101679.12;1749497;79;21963;-59
2023/01/13 09:09:47;;;;;;;27.95;14.63;;;;;;;0.29;66.49;101681.27;1760213;80;21485;-60
2023/01/13 09:13:14;;;;;;;29.65;14.45;;;;;;;0.31;66.49;101674.00;1765176;81;21331;-60
2023/01/13 09:16:21;;;;;;;32.03;13.93;;;;;;;0.36;66.52;101677.33;1770526;81;21203;-61
2023/01/13 09:19:28;;;;;;;33.55;15.23;;;;;;;0.45;66.62;101668.75;1767230;80;21346;-59
2023/01/13 09:22:36;;;;;;;36.08;15.45;;;;;;;0.47;66.65;101674.94;1766988;80;21200;-61
2023/01/13 09:25:43;;;;;;;32.03;13.70;;;;;;;0.51;66.65;101671.62;1766612;80;21220;-60
2023/01/13 09:28:53;;;;;;;30.90;13.30;;;;;;;0.48;66.46;101665.90;1768836;80;21819;-61
2023/01/13 09:31:58;;;;;;;37.60;19.45;;;;;;;0.32;66.25;101662.27;1767958;80;21567;-60
2023/01/13 09:35:03;;;;;;;38.30;14.68;;;;;;;0.29;66.41;101661.54;1767958;80;21208;-59
2023/01/13 09:38:09;;;;;;;32.65;14.03;;;;;;;0.33;66.53;101669.41;1767362;80;21719;-59
2023/01/13 09:45:06;;;;;;;41.02;17.65;;;;;;;0.43;66.62;101657.19;1760097;81;21237;-60
2023/01/13 09:48:16;;;;;;;41.13;16.48;;;;;;;0.54;66.81;101653.94;1769371;80;21200;-60
2023/01/13 09:51:28;;;;;;;32.75;17.17;;;;;;;0.61;66.84;101656.22;1770996;80;21169;-60
2023/01/13 09:55:02;;;;;;;34.83;17.48;;;;;;;0.62;66.67;101647.67;1770484;81;21213;-59
2023/01/13 09:58:11;;;;;;;37.73;17.98;;;;;;;0.65;66.72;101647.50;1721096;82;21808;-60
2023/01/13 10:01:35;;;;;;;32.42;16.27;;;;;;;0.75;66.76;101633.44;1722249;82;21186;-59
2023/01/13 10:04:41;;;;;;;38.35;18.82;;;;;;;0.75;66.69;101636.13;1765296;79;21780;-61
2023/01/13 10:07:59;;;;;;;40.73;17.80;;;;;;;0.79;66.84;101639.08;1739682;82;21241;-60
2023/01/13 10:15:01;;;;;;;29.65;16.73;;;;;;;0.76;66.56;101628.43;1706535;82;21227;-60
2023/01/13 10:18:24;;;;;;;42.65;18.07;;;;;;;0.67;66.48;101630.29;1681854;84;21744;-60
2023/01/13 10:21:57;;;;;;;40.55;17.60;;;;;;;0.66;66.59;101627.21;1707273;83;21192;-60
2023/01/13 10:25:29;;;;;;;42.88;19.57;;;;;;;0.71;66.73;101621.57;1707043;82;21223;-59
2023/01/13 10:28:34;;;;;;;42.83;19.50;;;;;;;0.84;66.89;101622.15;1731120;81;21180;-59
2023/01/13 10:31:41;;;;;;;40.03;20.17;;;;;;;0.95;67.00;101614.84;1733967;82;21343;-59
2023/01/13 10:34:59;;;;;;;55.85;21.85;;;;;;;1.08;67.06;101622.14;1713748;83;21284;-60
2023/01/13 10:38:04;;;;;;;34.73;17.05;;;;;;;1.20;67.15;101612.04;1736384;82;21184;-60
2023/01/13 10:41:26;;;;;;;42.70;18.73;;;;;;;1.24;66.91;101613.59;1737035;82;21215;-59
2023/01/13 10:44:33;;;;;;;59.48;24.92;;;;;;;1.19;66.64;101614.32;1737477;81;21275;-59
2023/01/13 10:47:42;;;;;;;63.87;22.00;;;;;;;1.05;66.53;101608.84;1737638;82;21200;-58
2023/01/13 10:50:49;;;;;;;46.45;19.95;;;;;;;1.09;66.79;101605.50;1737045;82;21244;-58
2023/01/13 10:54:16;;;;;;;42.00;18.37;;;;;;;1.19;66.94;101600.84;1737141;81;21212;-59
2023/01/13 10:57:32;;;;;;;37.00;17.80;;;;;;;1.22;66.94;101599.81;1712819;82;21200;-59
2023/01/13 11:00:39;;;;;;;34.55;17.52;;;;;;;1.22;66.91;101593.92;1729792;81;21239;-59
2023/01/13 11:03:50;;;;;;;35.92;19.17;;;;;;;1.19;66.76;101594.59;1737302;81;21243;-60
2023/01/13 11:06:57;;;;;;;46.37;18.05;;;;;;;1.10;66.58;101583.84;1727032;81;21258;-56
2023/01/13 11:10:18;;;;;;;41.13;19.98;;;;;;;1.05;66.49;101587.27;1707870;82;21243;-57
2023/01/13 11:13:33;;;;;;;40.63;20.52;;;;;;;1.01;66.58;101583.02;1723345;81;21789;-56
2023/01/13 11:16:39;;;;;;;42.20;18.48;;;;;;;1.10;66.92;101578.45;1756340;80;21210;-58
2023/01/13 11:19:52;;;;;;;36.08;15.80;;;;;;;1.21;67.12;101579.17;1740662;81;21261;-57
2023/01/13 11:23:09;;;;;;;40.52;17.02;;;;;;;1.25;67.03;101585.65;1770800;79;21201;-58
2023/01/13 11:26:24;;;;;;;36.13;16.77;;;;;;;1.15;66.76;101580.41;1759667;79;21623;-58
2023/01/13 11:30:08;;;;;;;45.73;15.55;;;;;;;1.08;66.71;101575.43;1759388;79;21220;-57
2023/01/13 11:33:23;;;;;;;34.23;16.73;;;;;;;1.06;66.74;101580.91;1750306;81;21207;-57
2023/01/13 11:36:34;;;;;;;34.05;15.55;;;;;;;0.99;66.71;101580.00;1714265;82;21208;-57
2023/01/13 11:40:04;;;;;;;39.55;15.68;;;;;;;1.00;66.81;101578.56;1704651;84;21212;-56
2023/01/13 11:43:43;;;;;;;27.65;14.53;;;;;;;1.09;67.12;101582.11;1695882;83;21213;-57
2023/01/13 11:46:50;;;;;;;29.92;14.78;;;;;;;1.18;67.12;101572.14;1739460;82;21710;-56
2023/01/13 11:49:56;;;;;;;31.30;15.60;;;;;;;1.14;66.96;101569.21;1739778;81;21726;-57
2023/01/13 11:53:18;;;;;;;41.23;14.45;;;;;;;1.09;66.86;101569.98;1739469;82;21267;-55
2023/01/13 11:56:56;;;;;;;35.38;14.53;;;;;;;1.03;66.95;101558.67;1740536;81;21706;-56
2023/01/13 12:00:28;;;;;;;26.95;14.47;;;;;;;1.10;67.25;101567.66;1758412;80;21204;-57
2023/01/13 12:03:58;;;;;;;35.25;14.68;;;;;;;1.19;67.25;101564.94;1770287;80;21190;-57
2023/01/13 12:07:29;;;;;;;37.53;18.80;;;;;;;1.25;67.30;101568.13;1779836;80;21218;-58
2023/01/13 12:11:14;;;;;;;;;;;;;;;1.32;67.25;101572.69;1794873;80;21393;-57
2023/01/13 12:14:46;;;;;;;32.65;14.40;;;;;;;1.37;67.23;101570.13;1791595;79;20485;-56
2023/01/13 12:18:29;;;;;;;29.27;11.30;;;;;;;1.32;67.11;101575.38;1793606;78;21346;-58
2023/01/13 12:21:46;;;;;;;28.02;11.73;;;;;;;1.24;67.02;101575.83;1793070;79;21327;-57
2023/01/13 12:24:59;;;;;;;27.20;13.28;;;;;;;1.13;66.96;101582.31;1768766;79;21209;-57
2023/01/13 12:28:16;;;;;;;30.12;12.98;;;;;;;1.08;67.06;101579.47;1741485;82;21272;-59
2023/01/13 12:31:23;;;;;;;32.95;12.03;;;;;;;1.01;67.11;101568.19;1768310;81;21197;-56
2023/01/13 12:34:53;;;;;;;35.70;14.45;;;;;;;1.01;67.22;101573.59;1792883;80;21342;-57
2023/01/13 12:38:30;;;;;;;30.62;12.03;;;;;;;0.97;67.30;101569.30;1793730;79;21236;-57
2023/01/13 12:45:23;;;;;;;31.75;12.60;;;;;;;0.94;67.35;101578.92;1774797;79;21744;-56
2023/01/13 12:49:00;;;;;;;25.48;12.03;;;;;;;0.98;67.41;101578.27;1775945;80;21220;-57
2023/01/13 12:52:17;;;;;;;14.95;7.00;;;;;;;1.00;67.34;101574.52;1719861;83;21275;-58
2023/01/13 12:55:25;;;;;;;21.57;7.72;;;;;;;0.95;67.19;101575.25;1770409;80;21260;-57
2023/01/13 12:58:34;;;;;;;16.27;7.72;;;;;;;0.80;67.08;101576.13;1763471;80;21197;-57
2023/01/13 13:01:42;;;;;;;14.80;7.92;;;;;;;0.82;67.32;101586.35;1774169;80;21234;-56
2023/01/13 13:04:57;;;;;;;16.77;7.55;;;;;;;0.88;67.48;101582.42;1772632;80;21805;-57
2023/01/13 13:08:39;;;;;;;21.77;7.62;;;;;;;0.89;67.49;101584.16;1772719;80;22022;-55
2023/01/13 13:15:07;;;;;;;20.10;7.87;;;;;;;0.84;67.50;101584.41;1740582;82;21206;-56
2023/01/13 13:18:29;;;;;;;16.15;7.17;;;;;;;0.83;67.54;101587.20;1740328;82;21201;-57
2023/01/13 13:21:38;;;;;;;21.57;7.87;;;;;;;0.85;67.70;101586.17;1740280;81;21195;-56
2023/01/13 13:24:46;;;;;;;21.35;8.80;;;;;;;0.81;67.57;101599.91;1740761;82;21346;-56
2023/01/13 13:27:57;;;;;;;19.87;7.67;;;;;;;0.83;67.64;101596.16;1756766;81;21379;-56
2023/01/13 13:31:15;;;;;;;24.50;9.05;;;;;;;0.87;67.69;101596.37;1756853;80;21203;-57
2023/01/13 13:34:48;;;;;;;31.77;9.50;;;;;;;0.92;67.76;101603.73;1756578;81;21760;-57
2023/01/13 13:48:36;;;;;;;19.62;7.87;;;;;;;1.00;67.92;101606.02;1757579;80;21220;-57
2023/01/13 13:51:48;;;;;;;24.75;9.18;;;;;;;1.05;68.09;101608.84;1758041;80;21192;-57
2023/01/13 13:55:01;;;;;;;21.85;8.75;;;;;;;1.08;68.05;101604.62;1757591;81;21365;-56
2023/01/13 13:58:05;;;;;;;20.27;8.63;;;;;;;1.12;68.02;101608.91;1757851;81;21732;-56
2023/01/13 14:01:11;;;;;;;26.07;10.10;;;;;;;1.05;67.77;101606.14;1758187;81;21180;-57
2023/01/13 14:04:28;;;;;;;22.73;8.88;;;;;;;0.99;67.79;101605.61;1757978;81;21212;-57
2023/01/13 14:07:34;;;;;;;25.48;11.43;;;;;;;1.01;67.91;101597.84;1757761;81;21204;-57
2023/01/13 14:10:43;;;;;;;25.32;10.58;;;;;;;1.05;67.96;101604.80;1757757;80;21231;-57
2023/01/13 14:13:51;;;;;;;29.95;12.80;;;;;;;1.05;68.00;101600.75;1757154;81;21243;-57
2023/01/13 14:16:57;;;;;;;25.50;12.13;;;;;;;1.03;67.92;101602.66;1758574;78;21343;-57
2023/01/13 14:20:12;;;;;;;26.17;12.33;;;;;;;1.06;68.02;101609.22;1757493;80;21263;-56
2023/01/13 14:23:26;;;;;;;23.47;10.25;;;;;;;1.11;68.03;101609.84;1756928;81;21275;-57
2023/01/13 14:26:36;;;;;;;36.90;14.45;;;;;;;1.18;68.03;101615.29;1751962;80;21200;-56
2023/01/13 14:29:44;;;;;;;29.82;11.15;;;;;;;1.22;67.99;101615.49;1740188;82;21578;-57
2023/01/13 14:32:50;;;;;;;28.73;11.00;;;;;;;1.24;67.90;101619.45;1740177;82;21228;-56
2023/01/13 14:36:22;;;;;;;26.82;10.98;;;;;;;1.23;67.97;101624.00;1739813;82;21209;-57
2023/01/13 14:39:32;;;;;;;30.95;13.03;;;;;;;1.29;68.15;101624.11;1740278;81;21216;-56
2023/01/13 14:42:40;;;;;;;27.93;12.78;;;;;;;1.28;68.12;101621.91;1764961;80;21225;-57
2023/01/13 14:46:07;;;;;;;25.55;10.38;;;;;;;1.30;68.08;101621.33;1770612;80;21300;-56
2023/01/13 14:49:12;;;;;;;26.62;11.90;;;;;;;1.30;68.04;101616.44;1732217;82;21589;-55
2023/01/13 14:52:31;;;;;;;30.97;11.48;;;;;;;1.29;67.95;101619.59;1715420;81;21220;-56
2023/01/13 14:55:41;;;;;;;23.10;10.50;;;;;;;1.29;68.01;101617.37;1739617;82;21260;-56
2023/01/13 14:58:48;;;;;;;32.15;13.55;;;;;;;1.27;67.96;101615.23;1739153;82;21210;-56
2023/01/13 15:01:54;;;;;;;34.43;14.70;;;;;;;1.27;68.09;101618.80;1739298;82;21264;-56
2023/01/13 15:05:00;;;;;;;31.85;12.82;;;;;;;1.30;68.09;101613.23;1739748;82;21225;-56
2023/01/13 15:08:18;;;;;;;32.03;12.68;;;;;;;1.34;68.06;101608.54;1739946;82;21785;-56
2023/01/13 15:11:33;;;;;;;25.70;12.50;;;;;;;1.34;67.97;101608.07;1748413;81;21185;-55
2023/01/13 15:14:39;;;;;;;35.28;12.85;;;;;;;1.33;67.92;101606.31;1755669;80;21255;-56
2023/01/13 15:17:48;;;;;;;22.17;11.35;;;;;;;1.35;68.05;101612.50;1738485;82;21248;-56
2023/01/13 15:20:58;;;;;;;29.72;13.30;;;;;;;1.39;68.08;101615.43;1755088;80;21252;-57
2023/01/13 15:24:04;;;;;;;28.20;12.58;;;;;;;1.40;68.11;101618.97;1767560;80;21205;-56
2023/01/13 15:27:14;;;;;;;29.65;11.83;;;;;;;1.44;68.12;101620.05;1745856;80;21741;-57
2023/01/13 15:30:30;;;;;;;28.55;13.13;;;;;;;1.46;68.08;101616.80;1747298;80;21236;-55
2023/01/13 15:33:39;;;;;;;30.88;12.18;;;;;;;1.49;68.09;101618.47;1749203;80;21205;-55
2023/01/13 15:36:45;;;;;;;32.35;11.90;;;;;;;1.49;68.08;101620.66;1754835;80;21308;-56
2023/01/13 15:39:50;;;;;;;32.17;12.33;;;;;;;1.47;67.95;101622.57;1722154;80;21258;-56
2023/01/13 15:46:40;;;;;;;29.00;13.08;;;;;;;1.49;68.13;101615.27;1757058;80;21709;-56